DAL179 GCLP-DBBB
Flight info
| Callsign | DAL179 |
|---|---|
| Flight time | 3h 37m |
| Altitude | 37000 |
| Route | COSTI Q279 LAY DCT BIMOG DCT 23N010W 14N000E DCT BATIA UM629 KELEX UA608 BIKAB BIKAB1V |
| Aircraft | B77W/H-SDE1E2E3FGHIJ2J3J4J5M1RWXY/LB1D1 |
Departure
| Time | 2026-04-20 17:12 |
|---|---|
| Airport | Gran Canaria Airport (GCLP) |
Arrival
| Time | 2026-04-20 20:50 |
|---|---|
| Airport | Cotonou Cadjehoun International Airport (DBBB) |
| Time | Latitude | Longitude | Altitude | Speed | Heading |
|---|---|---|---|---|---|
| 2026-04-20 16:27 | 27.93516 | -15.38962 | 89 ft | 0 kts | 291° |
| 2026-04-20 17:02 | 27.93512 | -15.38952 | 89 ft | 4 kts | 288° |
| 2026-04-20 17:02 | 27.93506 | -15.38922 | 93 ft | 4 kts | 275° |
| 2026-04-20 17:02 | 27.93506 | -15.38892 | 92 ft | 4 kts | 252° |
| 2026-04-20 17:03 | 27.93519 | -15.38869 | 91 ft | 4 kts | 204° |
| 2026-04-20 17:03 | 27.93525 | -15.38866 | 91 ft | 2 kts | 195° |
| 2026-04-20 17:05 | 27.93524 | -15.38867 | 90 ft | 1 kts | 195° |
| 2026-04-20 17:05 | 27.93510 | -15.38871 | 91 ft | 4 kts | 195° |
| 2026-04-20 17:06 | 27.93475 | -15.38869 | 92 ft | 6 kts | 162° |
| 2026-04-20 17:06 | 27.93442 | -15.38828 | 90 ft | 9 kts | 118° |
| 2026-04-20 17:06 | 27.93417 | -15.38778 | 86 ft | 6 kts | 133° |
| 2026-04-20 17:06 | 27.93370 | -15.38775 | 83 ft | 8 kts | 191° |
| 2026-04-20 17:07 | 27.93305 | -15.38796 | 82 ft | 10 kts | 198° |
| 2026-04-20 17:07 | 27.93237 | -15.38825 | 82 ft | 11 kts | 202° |
| 2026-04-20 17:07 | 27.93165 | -15.38861 | 83 ft | 11 kts | 205° |
| 2026-04-20 17:07 | 27.93092 | -15.38897 | 85 ft | 11 kts | 203° |
| 2026-04-20 17:08 | 27.93019 | -15.38932 | 87 ft | 12 kts | 202° |
| 2026-04-20 17:08 | 27.92934 | -15.38968 | 88 ft | 13 kts | 200° |
| 2026-04-20 17:08 | 27.92848 | -15.39005 | 89 ft | 13 kts | 201° |
| 2026-04-20 17:08 | 27.92763 | -15.39043 | 93 ft | 13 kts | 202° |
| 2026-04-20 17:09 | 27.92678 | -15.39082 | 95 ft | 13 kts | 202° |
| 2026-04-20 17:09 | 27.92593 | -15.39120 | 99 ft | 13 kts | 201° |
| 2026-04-20 17:09 | 27.92508 | -15.39158 | 100 ft | 13 kts | 201° |
| 2026-04-20 17:09 | 27.92422 | -15.39195 | 102 ft | 13 kts | 201° |
| 2026-04-20 17:10 | 27.92336 | -15.39232 | 105 ft | 13 kts | 201° |
| 2026-04-20 17:10 | 27.92248 | -15.39270 | 106 ft | 15 kts | 201° |
| 2026-04-20 17:10 | 27.92132 | -15.39322 | 104 ft | 21 kts | 202° |
| 2026-04-20 17:10 | 27.92004 | -15.39379 | 100 ft | 11 kts | 201° |
| 2026-04-20 17:11 | 27.91932 | -15.39385 | 98 ft | 11 kts | 148° |
| 2026-04-20 17:11 | 27.91910 | -15.39295 | 96 ft | 14 kts | 78° |
| 2026-04-20 17:11 | 27.91957 | -15.39210 | 92 ft | 0 kts | 31° |
| 2026-04-20 17:11 | 27.91967 | -15.39203 | 92 ft | 6 kts | 30° |
| 2026-04-20 17:12 | 27.92160 | -15.39115 | 89 ft | 67 kts | 21° |
| 2026-04-20 17:12 | 27.92849 | -15.38812 | 63 ft | 146 kts | 21° |
| 2026-04-20 17:12 | 27.93960 | -15.38316 | 397 ft | 175 kts | 22° |
| 2026-04-20 17:12 | 27.95103 | -15.37804 | 1289 ft | 176 kts | 23° |
| 2026-04-20 17:13 | 27.96255 | -15.37291 | 2080 ft | 183 kts | 21° |
| 2026-04-20 17:13 | 27.97535 | -15.36732 | 2411 ft | 212 kts | 20° |
| 2026-04-20 17:13 | 27.99016 | -15.36096 | 2683 ft | 243 kts | 20° |
| 2026-04-20 17:13 | 28.00665 | -15.35387 | 3251 ft | 261 kts | 21° |
| 2026-04-20 17:14 | 28.02163 | -15.34172 | 3875 ft | 275 kts | 53° |
| 2026-04-20 17:14 | 28.02893 | -15.32166 | 4657 ft | 283 kts | 87° |
| 2026-04-20 17:14 | 28.02554 | -15.30003 | 5451 ft | 279 kts | 117° |
| 2026-04-20 17:14 | 28.01728 | -15.28033 | 6249 ft | 284 kts | 120° |
| 2026-04-20 17:15 | 28.00875 | -15.26017 | 7147 ft | 285 kts | 120° |
| 2026-04-20 17:15 | 28.00018 | -15.23985 | 8017 ft | 288 kts | 121° |
| 2026-04-20 17:15 | 27.99148 | -15.21917 | 8854 ft | 293 kts | 121° |
| 2026-04-20 17:15 | 27.98269 | -15.19812 | 9694 ft | 298 kts | 121° |
| 2026-04-20 17:16 | 27.97376 | -15.17665 | 10381 ft | 308 kts | 121° |
| 2026-04-20 17:16 | 27.96420 | -15.15376 | 10642 ft | 336 kts | 120° |
| 2026-04-20 17:16 | 27.95383 | -15.12885 | 10864 ft | 364 kts | 120° |
| 2026-04-20 17:16 | 27.94287 | -15.10229 | 11457 ft | 378 kts | 120° |
| 2026-04-20 17:17 | 27.93169 | -15.07498 | 12355 ft | 386 kts | 119° |
| 2026-04-20 17:17 | 27.92038 | -15.04727 | 13392 ft | 390 kts | 119° |
| 2026-04-20 17:17 | 27.90896 | -15.01926 | 14332 ft | 395 kts | 119° |
| 2026-04-20 17:17 | 27.89735 | -14.99087 | 15221 ft | 401 kts | 119° |
| 2026-04-20 17:18 | 27.88554 | -14.96203 | 16131 ft | 408 kts | 118° |
| 2026-04-20 17:18 | 27.87351 | -14.93271 | 17022 ft | 414 kts | 118° |
| 2026-04-20 17:18 | 27.86133 | -14.90304 | 17939 ft | 419 kts | 118° |
| 2026-04-20 17:18 | 27.84897 | -14.87299 | 18752 ft | 425 kts | 118° |
| 2026-04-20 17:19 | 27.83639 | -14.84242 | 19517 ft | 431 kts | 118° |
| 2026-04-20 17:19 | 27.82365 | -14.81151 | 20285 ft | 437 kts | 118° |
| 2026-04-20 17:19 | 27.81073 | -14.78016 | 21065 ft | 442 kts | 118° |
| 2026-04-20 17:19 | 27.79766 | -14.74848 | 21830 ft | 448 kts | 118° |
| 2026-04-20 17:20 | 27.78439 | -14.71636 | 22570 ft | 454 kts | 118° |
| 2026-04-20 17:20 | 27.77095 | -14.68386 | 23291 ft | 460 kts | 118° |
| 2026-04-20 17:20 | 27.75734 | -14.65095 | 23906 ft | 465 kts | 118° |
| 2026-04-20 17:20 | 27.74357 | -14.61770 | 24530 ft | 470 kts | 118° |
| 2026-04-20 17:21 | 27.72965 | -14.58409 | 25161 ft | 474 kts | 118° |
| 2026-04-20 17:21 | 27.71562 | -14.55025 | 25770 ft | 478 kts | 118° |
| 2026-04-20 17:21 | 27.70145 | -14.51611 | 26370 ft | 483 kts | 118° |
| 2026-04-20 17:21 | 27.68712 | -14.48161 | 26912 ft | 488 kts | 118° |
| 2026-04-20 17:22 | 27.67265 | -14.44683 | 27484 ft | 492 kts | 118° |
| 2026-04-20 17:22 | 27.65804 | -14.41172 | 28000 ft | 497 kts | 118° |
| 2026-04-20 17:22 | 27.64327 | -14.37626 | 28542 ft | 501 kts | 118° |
| 2026-04-20 17:22 | 27.62838 | -14.34056 | 29056 ft | 505 kts | 118° |
| 2026-04-20 17:23 | 27.61335 | -14.30453 | 29507 ft | 510 kts | 118° |
| 2026-04-20 17:23 | 27.59818 | -14.26822 | 29909 ft | 515 kts | 118° |
| 2026-04-20 17:23 | 27.58287 | -14.23160 | 30257 ft | 518 kts | 118° |
| 2026-04-20 17:23 | 27.56748 | -14.19479 | 30717 ft | 518 kts | 118° |
| 2026-04-20 17:24 | 27.55216 | -14.15816 | 31311 ft | 516 kts | 118° |
| 2026-04-20 17:24 | 27.53691 | -14.12172 | 31883 ft | 514 kts | 118° |
| 2026-04-20 17:24 | 27.52165 | -14.08533 | 32390 ft | 513 kts | 119° |
| 2026-04-20 17:24 | 27.50660 | -14.04950 | 32863 ft | 513 kts | 119° |
| 2026-04-20 17:25 | 27.49133 | -14.01320 | 33328 ft | 513 kts | 119° |
| 2026-04-20 17:25 | 27.47607 | -13.97692 | 33808 ft | 512 kts | 119° |
| 2026-04-20 17:25 | 27.46082 | -13.94070 | 34232 ft | 512 kts | 119° |
| 2026-04-20 17:25 | 27.44557 | -13.90451 | 34605 ft | 512 kts | 119° |
| 2026-04-20 17:26 | 27.43031 | -13.86833 | 34963 ft | 512 kts | 119° |
| 2026-04-20 17:26 | 27.41503 | -13.83215 | 35329 ft | 511 kts | 119° |
| 2026-04-20 17:26 | 27.39980 | -13.79608 | 35748 ft | 510 kts | 119° |
| 2026-04-20 17:26 | 27.38458 | -13.76008 | 36101 ft | 509 kts | 119° |
| 2026-04-20 17:27 | 27.36934 | -13.72408 | 36420 ft | 509 kts | 118° |
| 2026-04-20 17:27 | 27.35408 | -13.68820 | 36762 ft | 509 kts | 119° |
| 2026-04-20 17:27 | 27.33831 | -13.65229 | 36795 ft | 514 kts | 120° |
| 2026-04-20 17:28 | 27.30601 | -13.58061 | 36823 ft | 511 kts | 120° |
| 2026-04-20 17:28 | 27.27410 | -13.50980 | 36827 ft | 506 kts | 120° |
| 2026-04-20 17:29 | 27.24243 | -13.43920 | 36831 ft | 505 kts | 120° |
| 2026-04-20 17:29 | 27.21078 | -13.36864 | 36831 ft | 506 kts | 120° |
| 2026-04-20 17:30 | 27.17906 | -13.29806 | 36829 ft | 506 kts | 120° |
| 2026-04-20 17:30 | 27.14355 | -13.23090 | 36829 ft | 500 kts | 132° |
| 2026-04-20 17:31 | 27.09600 | -13.17486 | 36829 ft | 492 kts | 146° |
| 2026-04-20 17:31 | 27.04216 | -13.12773 | 36840 ft | 491 kts | 147° |
| 2026-04-20 17:32 | 26.98795 | -13.08086 | 36823 ft | 493 kts | 147° |
| 2026-04-20 17:32 | 26.93385 | -13.03358 | 36815 ft | 493 kts | 147° |
| 2026-04-20 17:33 | 26.87988 | -12.98609 | 36813 ft | 494 kts | 147° |
| 2026-04-20 17:33 | 26.82587 | -12.93855 | 36808 ft | 493 kts | 147° |
| 2026-04-20 17:34 | 26.77185 | -12.89108 | 36809 ft | 494 kts | 147° |
| 2026-04-20 17:34 | 26.71779 | -12.84366 | 36805 ft | 494 kts | 147° |
| 2026-04-20 17:35 | 26.66365 | -12.79624 | 36807 ft | 494 kts | 147° |
| 2026-04-20 17:35 | 26.60946 | -12.74882 | 36796 ft | 495 kts | 147° |
| 2026-04-20 17:36 | 26.55522 | -12.70144 | 36798 ft | 495 kts | 147° |
| 2026-04-20 17:36 | 26.50098 | -12.65409 | 36794 ft | 495 kts | 147° |
| 2026-04-20 17:37 | 26.44674 | -12.60681 | 36789 ft | 495 kts | 147° |
| 2026-04-20 17:37 | 26.39247 | -12.55956 | 36784 ft | 495 kts | 147° |
| 2026-04-20 17:38 | 26.33818 | -12.51236 | 36785 ft | 495 kts | 147° |
| 2026-04-20 17:38 | 26.28389 | -12.46521 | 36768 ft | 494 kts | 146° |
| 2026-04-20 17:39 | 26.23001 | -12.41848 | 36773 ft | 494 kts | 146° |
| 2026-04-20 17:39 | 26.17570 | -12.37144 | 36769 ft | 495 kts | 146° |
| 2026-04-20 17:40 | 26.12134 | -12.32440 | 36764 ft | 495 kts | 146° |
| 2026-04-20 17:40 | 26.06696 | -12.27740 | 36761 ft | 495 kts | 146° |
| 2026-04-20 17:41 | 26.01252 | -12.23041 | 36753 ft | 495 kts | 146° |
| 2026-04-20 17:41 | 25.95806 | -12.18345 | 36762 ft | 495 kts | 146° |
| 2026-04-20 17:42 | 25.90355 | -12.13651 | 36758 ft | 496 kts | 146° |
| 2026-04-20 17:42 | 25.84901 | -12.08961 | 36761 ft | 496 kts | 146° |
| 2026-04-20 17:43 | 25.79446 | -12.04274 | 36758 ft | 496 kts | 146° |
| 2026-04-20 17:43 | 25.73986 | -11.99590 | 36748 ft | 496 kts | 146° |
| 2026-04-20 17:44 | 25.68531 | -11.94914 | 36755 ft | 495 kts | 146° |
| 2026-04-20 17:44 | 25.63082 | -11.90250 | 36755 ft | 495 kts | 146° |
| 2026-04-20 17:45 | 25.57635 | -11.85593 | 36759 ft | 494 kts | 146° |
| 2026-04-20 17:45 | 25.53112 | -11.81730 | 36768 ft | 494 kts | 146° |
| 2026-04-20 17:46 | 25.47669 | -11.77086 | 36770 ft | 494 kts | 146° |
| 2026-04-20 17:46 | 25.42229 | -11.72450 | 36762 ft | 493 kts | 146° |
| 2026-04-20 17:47 | 25.36790 | -11.67821 | 36762 ft | 493 kts | 146° |
| 2026-04-20 17:47 | 25.31351 | -11.63196 | 36764 ft | 494 kts | 146° |
| 2026-04-20 17:48 | 25.25905 | -11.58569 | 36762 ft | 494 kts | 146° |
| 2026-04-20 17:48 | 25.20414 | -11.54018 | 36765 ft | 492 kts | 150° |
| 2026-04-20 17:49 | 25.14688 | -11.49922 | 36756 ft | 490 kts | 152° |
| 2026-04-20 17:49 | 25.08961 | -11.45895 | 36761 ft | 490 kts | 152° |
| 2026-04-20 17:50 | 25.03221 | -11.41837 | 36768 ft | 490 kts | 151° |
| 2026-04-20 17:50 | 24.97486 | -11.37764 | 36764 ft | 490 kts | 151° |
| 2026-04-20 17:51 | 24.91758 | -11.33693 | 36761 ft | 490 kts | 151° |
| 2026-04-20 17:51 | 24.86026 | -11.29623 | 36749 ft | 490 kts | 151° |
| 2026-04-20 17:52 | 24.80294 | -11.25560 | 36759 ft | 490 kts | 151° |
| 2026-04-20 17:52 | 24.74599 | -11.21529 | 36763 ft | 490 kts | 152° |
| 2026-04-20 17:53 | 24.68827 | -11.17448 | 36759 ft | 490 kts | 152° |
| 2026-04-20 17:53 | 24.63126 | -11.13421 | 36762 ft | 490 kts | 152° |
| 2026-04-20 17:54 | 24.57384 | -11.09369 | 36744 ft | 490 kts | 152° |
| 2026-04-20 17:54 | 24.51602 | -11.05294 | 36755 ft | 491 kts | 152° |
| 2026-04-20 17:55 | 24.45895 | -11.01277 | 36769 ft | 491 kts | 152° |
| 2026-04-20 17:55 | 24.40142 | -10.97231 | 36765 ft | 491 kts | 152° |
| 2026-04-20 17:56 | 24.34384 | -10.93186 | 36756 ft | 491 kts | 152° |
| 2026-04-20 17:56 | 24.28626 | -10.89146 | 36761 ft | 491 kts | 152° |
| 2026-04-20 17:57 | 24.22869 | -10.85110 | 36766 ft | 491 kts | 152° |
| 2026-04-20 17:57 | 24.17113 | -10.81080 | 36765 ft | 491 kts | 152° |
| 2026-04-20 17:58 | 24.11362 | -10.77057 | 36766 ft | 490 kts | 152° |
| 2026-04-20 17:58 | 24.05610 | -10.73039 | 36766 ft | 490 kts | 152° |
| 2026-04-20 17:59 | 23.99859 | -10.69025 | 36758 ft | 490 kts | 152° |
| 2026-04-20 17:59 | 23.94114 | -10.65020 | 36763 ft | 490 kts | 153° |
| 2026-04-20 18:00 | 23.88365 | -10.61016 | 36775 ft | 490 kts | 153° |
| 2026-04-20 18:00 | 23.82613 | -10.57015 | 36757 ft | 490 kts | 153° |
| 2026-04-20 18:01 | 23.76862 | -10.53019 | 36775 ft | 490 kts | 153° |
| 2026-04-20 18:01 | 23.71107 | -10.49023 | 36768 ft | 490 kts | 153° |
| 2026-04-20 18:02 | 23.65350 | -10.45031 | 36767 ft | 490 kts | 153° |
| 2026-04-20 18:02 | 23.59594 | -10.41044 | 36771 ft | 490 kts | 153° |
| 2026-04-20 18:03 | 23.53869 | -10.37083 | 36769 ft | 491 kts | 153° |
| 2026-04-20 18:03 | 23.48102 | -10.33096 | 36773 ft | 491 kts | 153° |
| 2026-04-20 18:04 | 23.42334 | -10.29113 | 36772 ft | 491 kts | 153° |
| 2026-04-20 18:04 | 23.36560 | -10.25129 | 36765 ft | 491 kts | 153° |
| 2026-04-20 18:05 | 23.27895 | -10.19160 | 36775 ft | 492 kts | 153° |
| 2026-04-20 18:05 | 23.22116 | -10.15183 | 36776 ft | 492 kts | 153° |
| 2026-04-20 18:06 | 23.16329 | -10.11205 | 36774 ft | 492 kts | 153° |
| 2026-04-20 18:06 | 23.10539 | -10.07229 | 36752 ft | 492 kts | 153° |
| 2026-04-20 18:07 | 23.04750 | -10.03256 | 36777 ft | 492 kts | 154° |
| 2026-04-20 18:07 | 22.99203 | -9.98830 | 36785 ft | 500 kts | 144° |
| 2026-04-20 18:08 | 22.94355 | -9.93342 | 36788 ft | 506 kts | 136° |
| 2026-04-20 18:08 | 22.89705 | -9.87607 | 36780 ft | 506 kts | 136° |
| 2026-04-20 18:09 | 22.85042 | -9.81884 | 36782 ft | 506 kts | 137° |
| 2026-04-20 18:09 | 22.80357 | -9.76195 | 36763 ft | 506 kts | 137° |
| 2026-04-20 18:10 | 22.75655 | -9.70517 | 36781 ft | 506 kts | 137° |
| 2026-04-20 18:10 | 22.70949 | -9.64842 | 36792 ft | 507 kts | 137° |
| 2026-04-20 18:11 | 22.66231 | -9.59158 | 36792 ft | 508 kts | 137° |
| 2026-04-20 18:11 | 22.61538 | -9.53505 | 36788 ft | 508 kts | 137° |
| 2026-04-20 18:12 | 22.56813 | -9.47819 | 36788 ft | 508 kts | 137° |
| 2026-04-20 18:12 | 22.52082 | -9.42134 | 36793 ft | 508 kts | 137° |
| 2026-04-20 18:13 | 22.47270 | -9.36559 | 36792 ft | 505 kts | 142° |
| 2026-04-20 18:13 | 22.42456 | -9.31003 | 36795 ft | 508 kts | 139° |
| 2026-04-20 18:14 | 22.37791 | -9.25252 | 36802 ft | 509 kts | 137° |
| 2026-04-20 18:14 | 22.33108 | -9.19503 | 36801 ft | 510 kts | 138° |
| 2026-04-20 18:15 | 22.28372 | -9.13783 | 36800 ft | 511 kts | 138° |
| 2026-04-20 18:15 | 22.23605 | -9.08081 | 36793 ft | 511 kts | 138° |
| 2026-04-20 18:16 | 22.18834 | -9.02390 | 36774 ft | 511 kts | 139° |
| 2026-04-20 18:16 | 22.14071 | -8.96710 | 36807 ft | 511 kts | 139° |
| 2026-04-20 18:17 | 22.09300 | -8.91028 | 36792 ft | 511 kts | 139° |
| 2026-04-20 18:17 | 22.04525 | -8.85347 | 36788 ft | 511 kts | 139° |
| 2026-04-20 18:18 | 21.99749 | -8.79671 | 36794 ft | 511 kts | 139° |
| 2026-04-20 18:18 | 21.94969 | -8.73998 | 36813 ft | 511 kts | 139° |
| 2026-04-20 18:19 | 21.90191 | -8.68335 | 36808 ft | 511 kts | 139° |
| 2026-04-20 18:19 | 21.85440 | -8.62709 | 36797 ft | 511 kts | 139° |
| 2026-04-20 18:20 | 21.80653 | -8.57050 | 36804 ft | 511 kts | 139° |
| 2026-04-20 18:20 | 21.75859 | -8.51388 | 36804 ft | 512 kts | 139° |
| 2026-04-20 18:21 | 21.71056 | -8.45721 | 36809 ft | 513 kts | 139° |
| 2026-04-20 18:21 | 21.66251 | -8.40057 | 36809 ft | 513 kts | 139° |
| 2026-04-20 18:22 | 21.61438 | -8.34390 | 36802 ft | 513 kts | 139° |
| 2026-04-20 18:22 | 21.56626 | -8.28730 | 36789 ft | 512 kts | 139° |
| 2026-04-20 18:23 | 21.51818 | -8.23081 | 36804 ft | 512 kts | 140° |
| 2026-04-20 18:23 | 21.47008 | -8.17437 | 36808 ft | 512 kts | 140° |
| 2026-04-20 18:24 | 21.42195 | -8.11796 | 36805 ft | 512 kts | 140° |
| 2026-04-20 18:24 | 21.37414 | -8.06196 | 36806 ft | 512 kts | 140° |
| 2026-04-20 18:25 | 21.32570 | -8.00530 | 36805 ft | 512 kts | 140° |
| 2026-04-20 18:25 | 21.27787 | -7.94940 | 36805 ft | 512 kts | 140° |
| 2026-04-20 18:26 | 21.22971 | -7.89319 | 36805 ft | 512 kts | 140° |
| 2026-04-20 18:26 | 21.18155 | -7.83703 | 36805 ft | 511 kts | 140° |
| 2026-04-20 18:27 | 21.13341 | -7.78095 | 36805 ft | 511 kts | 140° |
| 2026-04-20 18:27 | 21.08520 | -7.72485 | 36805 ft | 511 kts | 140° |
| 2026-04-20 18:28 | 21.03704 | -7.66886 | 36809 ft | 511 kts | 140° |
| 2026-04-20 18:28 | 20.98883 | -7.61286 | 36807 ft | 511 kts | 140° |
| 2026-04-20 18:29 | 20.94061 | -7.55693 | 36798 ft | 512 kts | 140° |
| 2026-04-20 18:29 | 20.89224 | -7.50089 | 36808 ft | 514 kts | 140° |
| 2026-04-20 18:30 | 20.84367 | -7.44467 | 36805 ft | 516 kts | 140° |
| 2026-04-20 18:30 | 20.79489 | -7.38825 | 36803 ft | 517 kts | 140° |
| 2026-04-20 18:31 | 20.74598 | -7.33173 | 36808 ft | 518 kts | 140° |
| 2026-04-20 18:31 | 20.69700 | -7.27518 | 36801 ft | 518 kts | 140° |
| 2026-04-20 18:32 | 20.64836 | -7.21909 | 36776 ft | 518 kts | 140° |
| 2026-04-20 18:32 | 20.59938 | -7.16266 | 36804 ft | 518 kts | 139° |
| 2026-04-20 18:33 | 20.55035 | -7.10626 | 36804 ft | 519 kts | 139° |
| 2026-04-20 18:33 | 20.50126 | -7.04983 | 36806 ft | 519 kts | 140° |
| 2026-04-20 18:34 | 20.46010 | -7.00256 | 36802 ft | 519 kts | 140° |
| 2026-04-20 18:34 | 20.41092 | -6.94613 | 36797 ft | 519 kts | 140° |
| 2026-04-20 18:35 | 20.36174 | -6.88975 | 36798 ft | 519 kts | 140° |
| 2026-04-20 18:35 | 20.31252 | -6.83339 | 36769 ft | 519 kts | 140° |
| 2026-04-20 18:36 | 20.26323 | -6.77702 | 36797 ft | 520 kts | 139° |
| 2026-04-20 18:36 | 20.21384 | -6.72059 | 36804 ft | 522 kts | 139° |
| 2026-04-20 18:37 | 20.16427 | -6.66400 | 36802 ft | 523 kts | 139° |
| 2026-04-20 18:37 | 20.11488 | -6.60767 | 36800 ft | 524 kts | 139° |
| 2026-04-20 18:38 | 20.06516 | -6.55100 | 36803 ft | 524 kts | 139° |
| 2026-04-20 18:38 | 20.01506 | -6.49397 | 36769 ft | 524 kts | 140° |
| 2026-04-20 18:39 | 19.96561 | -6.43773 | 36797 ft | 524 kts | 140° |
| 2026-04-20 18:39 | 19.91576 | -6.38112 | 36801 ft | 524 kts | 140° |
| 2026-04-20 18:40 | 19.86591 | -6.32455 | 36800 ft | 525 kts | 140° |
| 2026-04-20 18:40 | 19.81597 | -6.26793 | 36801 ft | 525 kts | 140° |
| 2026-04-20 18:41 | 19.76602 | -6.21135 | 36802 ft | 525 kts | 140° |
| 2026-04-20 18:41 | 19.71606 | -6.15481 | 36803 ft | 525 kts | 140° |
| 2026-04-20 18:42 | 19.66608 | -6.09832 | 36781 ft | 525 kts | 140° |
| 2026-04-20 18:42 | 19.61607 | -6.04184 | 36808 ft | 526 kts | 140° |
| 2026-04-20 18:43 | 19.56593 | -5.98529 | 36802 ft | 527 kts | 140° |
| 2026-04-20 18:43 | 19.51568 | -5.92865 | 36802 ft | 528 kts | 140° |
| 2026-04-20 18:44 | 19.46538 | -5.87202 | 36801 ft | 528 kts | 140° |
| 2026-04-20 18:44 | 19.41502 | -5.81535 | 36799 ft | 528 kts | 140° |
| 2026-04-20 18:45 | 19.36463 | -5.75872 | 36761 ft | 528 kts | 140° |
| 2026-04-20 18:45 | 19.31427 | -5.70217 | 36790 ft | 528 kts | 141° |
| 2026-04-20 18:46 | 19.26384 | -5.64561 | 36808 ft | 528 kts | 141° |
| 2026-04-20 18:46 | 19.21369 | -5.58942 | 36794 ft | 529 kts | 141° |
| 2026-04-20 18:47 | 19.16318 | -5.53287 | 36800 ft | 529 kts | 141° |
| 2026-04-20 18:47 | 19.11268 | -5.47639 | 36799 ft | 529 kts | 141° |
| 2026-04-20 18:48 | 19.06214 | -5.41992 | 36794 ft | 528 kts | 141° |
| 2026-04-20 18:48 | 19.01162 | -5.36352 | 36779 ft | 528 kts | 141° |
| 2026-04-20 18:49 | 18.96085 | -5.30694 | 37096 ft | 532 kts | 141° |
| 2026-04-20 18:49 | 18.93540 | -5.27858 | 37465 ft | 532 kts | 141° |
| 2026-04-20 18:49 | 18.90999 | -5.25025 | 37832 ft | 531 kts | 141° |
| 2026-04-20 18:50 | 18.88454 | -5.22190 | 38160 ft | 531 kts | 141° |
| 2026-04-20 18:50 | 18.85910 | -5.19359 | 38453 ft | 532 kts | 141° |
| 2026-04-20 18:50 | 18.83359 | -5.16521 | 38689 ft | 533 kts | 141° |
| 2026-04-20 18:50 | 18.80799 | -5.13677 | 38747 ft | 536 kts | 141° |
| 2026-04-20 18:51 | 18.75672 | -5.07980 | 38789 ft | 534 kts | 141° |
| 2026-04-20 18:51 | 18.70583 | -5.02325 | 38756 ft | 530 kts | 142° |
| 2026-04-20 18:52 | 18.65512 | -4.96699 | 38792 ft | 528 kts | 142° |
| 2026-04-20 18:52 | 18.60442 | -4.91086 | 38817 ft | 529 kts | 142° |
| 2026-04-20 18:53 | 18.55392 | -4.85500 | 38802 ft | 531 kts | 142° |
| 2026-04-20 18:53 | 18.50289 | -4.79858 | 38799 ft | 532 kts | 142° |
| 2026-04-20 18:54 | 18.45171 | -4.74203 | 38800 ft | 534 kts | 142° |
| 2026-04-20 18:54 | 18.40038 | -4.68537 | 38794 ft | 535 kts | 142° |
| 2026-04-20 18:55 | 18.34901 | -4.62870 | 38778 ft | 535 kts | 141° |
| 2026-04-20 18:55 | 18.29751 | -4.57196 | 38789 ft | 536 kts | 141° |
| 2026-04-20 18:56 | 18.24601 | -4.51525 | 38800 ft | 536 kts | 141° |
| 2026-04-20 18:56 | 18.19447 | -4.45857 | 38798 ft | 536 kts | 141° |
| 2026-04-20 18:57 | 18.14298 | -4.40198 | 38789 ft | 535 kts | 141° |
| 2026-04-20 18:57 | 18.09151 | -4.34547 | 38788 ft | 535 kts | 142° |
| 2026-04-20 18:58 | 18.04009 | -4.28907 | 38785 ft | 534 kts | 142° |
| 2026-04-20 18:58 | 17.98875 | -4.23281 | 38784 ft | 533 kts | 142° |
| 2026-04-20 18:59 | 17.93740 | -4.17660 | 38788 ft | 533 kts | 142° |
| 2026-04-20 18:59 | 17.88606 | -4.12044 | 38788 ft | 533 kts | 142° |
| 2026-04-20 19:00 | 17.83505 | -4.06471 | 38786 ft | 533 kts | 142° |
| 2026-04-20 19:00 | 17.78340 | -4.00830 | 38790 ft | 533 kts | 142° |
| 2026-04-20 19:01 | 17.73235 | -3.95262 | 38787 ft | 533 kts | 142° |
| 2026-04-20 19:01 | 17.68092 | -3.89656 | 38762 ft | 533 kts | 142° |
| 2026-04-20 19:02 | 17.62944 | -3.84051 | 38783 ft | 535 kts | 142° |
| 2026-04-20 19:02 | 17.57775 | -3.78427 | 38783 ft | 536 kts | 141° |
| 2026-04-20 19:03 | 17.52589 | -3.72790 | 38786 ft | 538 kts | 141° |
| 2026-04-20 19:03 | 17.47390 | -3.67143 | 38785 ft | 539 kts | 141° |
| 2026-04-20 19:04 | 17.42187 | -3.61495 | 38776 ft | 539 kts | 141° |
| 2026-04-20 19:04 | 17.36979 | -3.55847 | 38776 ft | 539 kts | 141° |
| 2026-04-20 19:05 | 17.31777 | -3.50210 | 38777 ft | 537 kts | 141° |
| 2026-04-20 19:05 | 17.26589 | -3.44595 | 38766 ft | 536 kts | 141° |
| 2026-04-20 19:06 | 17.21404 | -3.38987 | 38772 ft | 535 kts | 141° |
| 2026-04-20 19:06 | 17.16236 | -3.33403 | 38768 ft | 534 kts | 141° |
| 2026-04-20 19:07 | 17.11074 | -3.27830 | 38763 ft | 533 kts | 141° |
| 2026-04-20 19:07 | 17.05921 | -3.22272 | 38764 ft | 532 kts | 141° |
| 2026-04-20 19:08 | 16.98226 | -3.13982 | 38762 ft | 531 kts | 141° |
| 2026-04-20 19:09 | 16.93075 | -3.08438 | 38763 ft | 532 kts | 141° |
| 2026-04-20 19:09 | 16.87922 | -3.02896 | 38747 ft | 532 kts | 141° |
| 2026-04-20 19:10 | 16.82763 | -2.97352 | 38758 ft | 532 kts | 141° |
| 2026-04-20 19:10 | 16.77602 | -2.91810 | 38759 ft | 532 kts | 141° |
| 2026-04-20 19:11 | 16.72437 | -2.86270 | 38750 ft | 532 kts | 141° |
| 2026-04-20 19:11 | 16.67271 | -2.80732 | 38727 ft | 532 kts | 141° |
| 2026-04-20 19:12 | 16.62108 | -2.75202 | 38747 ft | 532 kts | 141° |
| 2026-04-20 19:12 | 16.56939 | -2.69670 | 38750 ft | 533 kts | 141° |
| 2026-04-20 19:13 | 16.51760 | -2.64132 | 38749 ft | 533 kts | 141° |
| 2026-04-20 19:13 | 16.46586 | -2.58604 | 38736 ft | 533 kts | 141° |
| 2026-04-20 19:14 | 16.41408 | -2.53076 | 38736 ft | 533 kts | 141° |
| 2026-04-20 19:14 | 16.36232 | -2.47554 | 38740 ft | 532 kts | 141° |
| 2026-04-20 19:15 | 16.31058 | -2.42040 | 38721 ft | 532 kts | 141° |
| 2026-04-20 19:15 | 16.25890 | -2.36536 | 38730 ft | 531 kts | 141° |
| 2026-04-20 19:16 | 16.20760 | -2.31078 | 38728 ft | 531 kts | 141° |
| 2026-04-20 19:16 | 16.15593 | -2.25584 | 38726 ft | 531 kts | 141° |
| 2026-04-20 19:17 | 16.10428 | -2.20096 | 38722 ft | 531 kts | 141° |
| 2026-04-20 19:17 | 16.05265 | -2.14615 | 38723 ft | 530 kts | 141° |
| 2026-04-20 19:18 | 16.00102 | -2.09139 | 38727 ft | 530 kts | 141° |
| 2026-04-20 19:18 | 15.94944 | -2.03671 | 38733 ft | 529 kts | 141° |
| 2026-04-20 19:19 | 15.89782 | -1.98205 | 38719 ft | 530 kts | 141° |
| 2026-04-20 19:19 | 15.84615 | -1.92737 | 38723 ft | 530 kts | 141° |
| 2026-04-20 19:20 | 15.79448 | -1.87273 | 38729 ft | 530 kts | 141° |
| 2026-04-20 19:20 | 15.76594 | -1.84256 | 38729 ft | 530 kts | 141° |
| 2026-04-20 19:21 | 15.72724 | -1.80160 | 38703 ft | 516 kts | 141° |
| 2026-04-20 19:21 | 15.68610 | -1.75803 | 38697 ft | 501 kts | 142° |
| 2026-04-20 19:22 | 15.63819 | -1.70741 | 38700 ft | 483 kts | 142° |
| 2026-04-20 19:22 | 15.59197 | -1.65867 | 38703 ft | 464 kts | 142° |
| 2026-04-20 19:22 | 15.56943 | -1.63495 | 38495 ft | 462 kts | 142° |
| 2026-04-20 19:23 | 15.54680 | -1.61120 | 38206 ft | 460 kts | 142° |
| 2026-04-20 19:23 | 15.52449 | -1.58775 | 38010 ft | 456 kts | 142° |
| 2026-04-20 19:23 | 15.50210 | -1.56424 | 37605 ft | 457 kts | 142° |
| 2026-04-20 19:24 | 15.45813 | -1.51797 | 37164 ft | 451 kts | 143° |
| 2026-04-20 19:24 | 15.43618 | -1.49491 | 37019 ft | 444 kts | 143° |
| 2026-04-20 19:24 | 15.41473 | -1.47230 | 36949 ft | 438 kts | 143° |
| 2026-04-20 19:24 | 15.39352 | -1.45004 | 36381 ft | 445 kts | 143° |
| 2026-04-20 19:25 | 15.37157 | -1.42704 | 36233 ft | 437 kts | 143° |
| 2026-04-20 19:25 | 15.32999 | -1.38327 | 35897 ft | 430 kts | 143° |
| 2026-04-20 19:25 | 15.30867 | -1.36101 | 35280 ft | 438 kts | 143° |
| 2026-04-20 19:26 | 15.28751 | -1.33880 | 35381 ft | 425 kts | 143° |
| 2026-04-20 19:26 | 15.26703 | -1.31722 | 35278 ft | 419 kts | 143° |
| 2026-04-20 19:26 | 15.24645 | -1.29565 | 34768 ft | 426 kts | 143° |
| 2026-04-20 19:26 | 15.22527 | -1.27358 | 34216 ft | 433 kts | 143° |
| 2026-04-20 19:27 | 15.20451 | -1.25178 | 34383 ft | 417 kts | 143° |
| 2026-04-20 19:27 | 15.18431 | -1.23051 | 34265 ft | 413 kts | 143° |
| 2026-04-20 19:27 | 15.16394 | -1.20921 | 33717 ft | 422 kts | 143° |
| 2026-04-20 19:27 | 15.14309 | -1.18749 | 33279 ft | 423 kts | 143° |
| 2026-04-20 19:28 | 15.12283 | -1.16620 | 33500 ft | 408 kts | 143° |
| 2026-04-20 19:28 | 15.10305 | -1.14541 | 33275 ft | 406 kts | 143° |
| 2026-04-20 19:28 | 15.08298 | -1.12447 | 32689 ft | 414 kts | 143° |
| 2026-04-20 19:28 | 15.06297 | -1.10356 | 32754 ft | 401 kts | 143° |
| 2026-04-20 19:29 | 15.04434 | -1.08399 | 32738 ft | 393 kts | 143° |
| 2026-04-20 19:29 | 15.02500 | -1.06378 | 32251 ft | 399 kts | 143° |
| 2026-04-20 19:29 | 15.00524 | -1.04325 | 31852 ft | 401 kts | 143° |
| 2026-04-20 19:29 | 14.98606 | -1.02315 | 32029 ft | 386 kts | 143° |
| 2026-04-20 19:30 | 14.96721 | -1.00341 | 32231 ft | 387 kts | 143° |
| 2026-04-20 19:30 | 14.94809 | -0.98353 | 32503 ft | 393 kts | 144° |
| 2026-04-20 19:30 | 14.92865 | -0.96334 | 32770 ft | 399 kts | 144° |
| 2026-04-20 19:30 | 14.90888 | -0.94279 | 32996 ft | 406 kts | 143° |
| 2026-04-20 19:31 | 14.88963 | -0.92275 | 33252 ft | 412 kts | 143° |
| 2026-04-20 19:31 | 14.86979 | -0.90209 | 33519 ft | 418 kts | 143° |
| 2026-04-20 19:31 | 14.84917 | -0.88060 | 33798 ft | 423 kts | 143° |
| 2026-04-20 19:31 | 14.82829 | -0.85883 | 34022 ft | 429 kts | 143° |
| 2026-04-20 19:32 | 14.80715 | -0.83679 | 34264 ft | 435 kts | 143° |
| 2026-04-20 19:32 | 14.78599 | -0.81474 | 34506 ft | 440 kts | 142° |
| 2026-04-20 19:32 | 14.76430 | -0.79213 | 34758 ft | 446 kts | 142° |
| 2026-04-20 19:32 | 14.74235 | -0.76926 | 34994 ft | 451 kts | 142° |
| 2026-04-20 19:33 | 14.72306 | -0.74918 | 35211 ft | 455 kts | 142° |
| 2026-04-20 19:33 | 14.70067 | -0.72586 | 35462 ft | 460 kts | 142° |
| 2026-04-20 19:33 | 14.67807 | -0.70233 | 35713 ft | 464 kts | 142° |
| 2026-04-20 19:33 | 14.65523 | -0.67857 | 35952 ft | 468 kts | 142° |
| 2026-04-20 19:34 | 14.63220 | -0.65462 | 36216 ft | 472 kts | 142° |
| 2026-04-20 19:34 | 14.60897 | -0.63047 | 36475 ft | 475 kts | 142° |
| 2026-04-20 19:34 | 14.58558 | -0.60615 | 36726 ft | 479 kts | 142° |
| 2026-04-20 19:34 | 14.56173 | -0.58137 | 36985 ft | 482 kts | 142° |
| 2026-04-20 19:35 | 14.53837 | -0.55709 | 37252 ft | 484 kts | 142° |
| 2026-04-20 19:35 | 14.51459 | -0.53240 | 37522 ft | 486 kts | 142° |
| 2026-04-20 19:35 | 14.49069 | -0.50759 | 37777 ft | 489 kts | 142° |
| 2026-04-20 19:35 | 14.46667 | -0.48266 | 38048 ft | 490 kts | 142° |
| 2026-04-20 19:36 | 14.44260 | -0.45769 | 38312 ft | 492 kts | 142° |
| 2026-04-20 19:36 | 14.41841 | -0.43261 | 38523 ft | 494 kts | 142° |
| 2026-04-20 19:36 | 14.39408 | -0.40741 | 38631 ft | 498 kts | 142° |
| 2026-04-20 19:37 | 14.34469 | -0.35629 | 38756 ft | 508 kts | 142° |
| 2026-04-20 19:37 | 14.29422 | -0.30407 | 38769 ft | 519 kts | 141° |
| 2026-04-20 19:38 | 14.24306 | -0.25108 | 38764 ft | 523 kts | 141° |
| 2026-04-20 19:38 | 14.19170 | -0.19793 | 38745 ft | 523 kts | 141° |
| 2026-04-20 19:39 | 14.14042 | -0.14491 | 38749 ft | 521 kts | 141° |
| 2026-04-20 19:39 | 14.08937 | -0.09220 | 38752 ft | 519 kts | 141° |
| 2026-04-20 19:40 | 14.03846 | -0.03979 | 38750 ft | 515 kts | 143° |
| 2026-04-20 19:40 | 13.98301 | 0.00514 | 38768 ft | 502 kts | 154° |
| 2026-04-20 19:41 | 13.92254 | 0.03916 | 38764 ft | 491 kts | 162° |
| 2026-04-20 19:41 | 13.86067 | 0.06897 | 38756 ft | 491 kts | 163° |
| 2026-04-20 19:42 | 13.79869 | 0.09887 | 38755 ft | 492 kts | 162° |
| 2026-04-20 19:42 | 13.73669 | 0.12911 | 38766 ft | 494 kts | 162° |
| 2026-04-20 19:43 | 13.67456 | 0.15957 | 38760 ft | 495 kts | 162° |
| 2026-04-20 19:43 | 13.61230 | 0.19010 | 38758 ft | 496 kts | 162° |
| 2026-04-20 19:44 | 13.54989 | 0.22068 | 38761 ft | 497 kts | 162° |
| 2026-04-20 19:44 | 13.48742 | 0.25126 | 38735 ft | 497 kts | 161° |
| 2026-04-20 19:45 | 13.42505 | 0.28177 | 38761 ft | 496 kts | 161° |
| 2026-04-20 19:45 | 13.36270 | 0.31225 | 38758 ft | 496 kts | 161° |
| 2026-04-20 19:46 | 13.30082 | 0.34247 | 38760 ft | 495 kts | 161° |
| 2026-04-20 19:46 | 13.23862 | 0.37284 | 38761 ft | 495 kts | 161° |
| 2026-04-20 19:47 | 13.17649 | 0.40316 | 38765 ft | 494 kts | 161° |
| 2026-04-20 19:47 | 13.11446 | 0.43340 | 38748 ft | 493 kts | 161° |
| 2026-04-20 19:48 | 13.05251 | 0.46360 | 38762 ft | 492 kts | 161° |
| 2026-04-20 19:48 | 12.99067 | 0.49372 | 38769 ft | 492 kts | 161° |
| 2026-04-20 19:49 | 12.92894 | 0.52377 | 38768 ft | 491 kts | 161° |
| 2026-04-20 19:49 | 12.86722 | 0.55380 | 38771 ft | 491 kts | 161° |
| 2026-04-20 19:50 | 12.80549 | 0.58381 | 38767 ft | 491 kts | 161° |
| 2026-04-20 19:50 | 12.74374 | 0.61382 | 38770 ft | 491 kts | 161° |
| 2026-04-20 19:51 | 12.68198 | 0.64382 | 38773 ft | 492 kts | 161° |
| 2026-04-20 19:51 | 12.62006 | 0.67388 | 38780 ft | 493 kts | 161° |
| 2026-04-20 19:52 | 12.55807 | 0.70396 | 38783 ft | 493 kts | 161° |
| 2026-04-20 19:52 | 12.49604 | 0.73404 | 38782 ft | 494 kts | 161° |
| 2026-04-20 19:53 | 12.43385 | 0.76419 | 38785 ft | 494 kts | 161° |
| 2026-04-20 19:53 | 12.37167 | 0.79431 | 38775 ft | 495 kts | 160° |
| 2026-04-20 19:54 | 12.30980 | 0.82427 | 38784 ft | 495 kts | 160° |
| 2026-04-20 19:54 | 12.24745 | 0.85445 | 38791 ft | 496 kts | 160° |
| 2026-04-20 19:55 | 12.18504 | 0.88464 | 38789 ft | 497 kts | 160° |
| 2026-04-20 19:55 | 12.12251 | 0.91487 | 38789 ft | 497 kts | 160° |
| 2026-04-20 19:56 | 12.07018 | 0.94015 | 38781 ft | 497 kts | 160° |
| 2026-04-20 19:56 | 11.99752 | 0.97524 | 38772 ft | 497 kts | 160° |
| 2026-04-20 19:57 | 11.93508 | 1.00539 | 38780 ft | 497 kts | 160° |
| 2026-04-20 19:57 | 11.87261 | 1.03553 | 38780 ft | 496 kts | 160° |
| 2026-04-20 19:58 | 11.81016 | 1.06565 | 38777 ft | 496 kts | 160° |
| 2026-04-20 19:58 | 11.74775 | 1.09573 | 38772 ft | 496 kts | 160° |
| 2026-04-20 19:59 | 11.68539 | 1.12576 | 38775 ft | 496 kts | 160° |
| 2026-04-20 19:59 | 11.62301 | 1.15580 | 38764 ft | 496 kts | 160° |
| 2026-04-20 20:00 | 11.56065 | 1.18581 | 38787 ft | 495 kts | 160° |
| 2026-04-20 20:00 | 11.49830 | 1.21579 | 38772 ft | 496 kts | 160° |
| 2026-04-20 20:01 | 11.43589 | 1.24580 | 38773 ft | 496 kts | 160° |
| 2026-04-20 20:01 | 11.37343 | 1.27582 | 38772 ft | 496 kts | 160° |
| 2026-04-20 20:02 | 11.31094 | 1.30583 | 38787 ft | 497 kts | 160° |
| 2026-04-20 20:02 | 11.24841 | 1.33585 | 38782 ft | 497 kts | 159° |
| 2026-04-20 20:03 | 11.18629 | 1.36567 | 38773 ft | 497 kts | 159° |
| 2026-04-20 20:03 | 11.12367 | 1.39570 | 38777 ft | 498 kts | 159° |
| 2026-04-20 20:04 | 11.06105 | 1.42573 | 38768 ft | 498 kts | 159° |
| 2026-04-20 20:04 | 10.99812 | 1.45508 | 38788 ft | 496 kts | 163° |
| 2026-04-20 20:05 | 10.93287 | 1.47612 | 38793 ft | 491 kts | 169° |
| 2026-04-20 20:05 | 10.86719 | 1.49513 | 38783 ft | 491 kts | 169° |
| 2026-04-20 20:06 | 10.80150 | 1.51439 | 38777 ft | 491 kts | 169° |
| 2026-04-20 20:06 | 10.73591 | 1.53393 | 38784 ft | 491 kts | 168° |
| 2026-04-20 20:07 | 10.67034 | 1.55356 | 38802 ft | 491 kts | 168° |
| 2026-04-20 20:07 | 10.60484 | 1.57316 | 38799 ft | 490 kts | 168° |
| 2026-04-20 20:08 | 10.53939 | 1.59271 | 38799 ft | 491 kts | 168° |
| 2026-04-20 20:08 | 10.47389 | 1.61226 | 38807 ft | 490 kts | 168° |
| 2026-04-20 20:09 | 10.41948 | 1.62850 | 38814 ft | 491 kts | 168° |
| 2026-04-20 20:09 | 10.34330 | 1.65122 | 38821 ft | 491 kts | 168° |
| 2026-04-20 20:10 | 10.27774 | 1.67076 | 38817 ft | 491 kts | 168° |
| 2026-04-20 20:10 | 10.22276 | 1.68715 | 38820 ft | 492 kts | 168° |
| 2026-04-20 20:11 | 10.15709 | 1.70670 | 38810 ft | 492 kts | 167° |
| 2026-04-20 20:11 | 10.09148 | 1.72625 | 38818 ft | 491 kts | 167° |
| 2026-04-20 20:12 | 10.02597 | 1.74575 | 38820 ft | 491 kts | 167° |
| 2026-04-20 20:12 | 9.96047 | 1.76524 | 38818 ft | 490 kts | 167° |
| 2026-04-20 20:13 | 9.86269 | 1.79431 | 38822 ft | 490 kts | 167° |
| 2026-04-20 20:13 | 9.79728 | 1.81375 | 38822 ft | 489 kts | 167° |
| 2026-04-20 20:14 | 9.73204 | 1.83314 | 38822 ft | 488 kts | 167° |
| 2026-04-20 20:14 | 9.66687 | 1.85249 | 38829 ft | 487 kts | 167° |
| 2026-04-20 20:15 | 9.60181 | 1.87181 | 38829 ft | 487 kts | 167° |
| 2026-04-20 20:15 | 9.53687 | 1.89108 | 38827 ft | 486 kts | 167° |
| 2026-04-20 20:16 | 9.47192 | 1.91034 | 38830 ft | 486 kts | 167° |
| 2026-04-20 20:16 | 9.40683 | 1.92902 | 38835 ft | 486 kts | 167° |
| 2026-04-20 20:17 | 9.34164 | 1.94699 | 38839 ft | 486 kts | 167° |
| 2026-04-20 20:17 | 9.27640 | 1.96499 | 38841 ft | 486 kts | 167° |
| 2026-04-20 20:18 | 9.21120 | 1.98309 | 38840 ft | 486 kts | 167° |
| 2026-04-20 20:18 | 9.14597 | 2.00125 | 38840 ft | 486 kts | 167° |
| 2026-04-20 20:19 | 9.08065 | 2.01943 | 38831 ft | 487 kts | 167° |
| 2026-04-20 20:19 | 9.01536 | 2.03758 | 38832 ft | 487 kts | 166° |
| 2026-04-20 20:20 | 8.95000 | 2.05576 | 38840 ft | 487 kts | 166° |
| 2026-04-20 20:20 | 8.88458 | 2.07394 | 38833 ft | 488 kts | 166° |
| 2026-04-20 20:21 | 8.81912 | 2.09212 | 38835 ft | 488 kts | 166° |
| 2026-04-20 20:21 | 8.75367 | 2.11030 | 38831 ft | 488 kts | 166° |
| 2026-04-20 20:22 | 8.68811 | 2.12850 | 38831 ft | 488 kts | 167° |
| 2026-04-20 20:22 | 8.62262 | 2.14667 | 38827 ft | 488 kts | 167° |
| 2026-04-20 20:23 | 8.55766 | 2.16468 | 38830 ft | 487 kts | 167° |
| 2026-04-20 20:23 | 8.49227 | 2.18281 | 38830 ft | 487 kts | 167° |
| 2026-04-20 20:24 | 8.42692 | 2.20093 | 38829 ft | 487 kts | 167° |
| 2026-04-20 20:24 | 8.39426 | 2.20998 | 38716 ft | 489 kts | 167° |
| 2026-04-20 20:24 | 8.36110 | 2.21915 | 37915 ft | 498 kts | 167° |
| 2026-04-20 20:25 | 8.32778 | 2.22838 | 37207 ft | 496 kts | 167° |
| 2026-04-20 20:25 | 8.29454 | 2.23759 | 36543 ft | 493 kts | 167° |
| 2026-04-20 20:25 | 8.26172 | 2.24670 | 36134 ft | 486 kts | 167° |
| 2026-04-20 20:25 | 8.22927 | 2.25570 | 35642 ft | 481 kts | 167° |
| 2026-04-20 20:26 | 8.19709 | 2.26461 | 35135 ft | 478 kts | 167° |
| 2026-04-20 20:26 | 8.16511 | 2.27346 | 34626 ft | 476 kts | 167° |
| 2026-04-20 20:26 | 8.13323 | 2.28228 | 34107 ft | 474 kts | 167° |
| 2026-04-20 20:26 | 8.10153 | 2.29105 | 33551 ft | 472 kts | 167° |
| 2026-04-20 20:27 | 8.06993 | 2.29978 | 33023 ft | 469 kts | 167° |
| 2026-04-20 20:27 | 8.03857 | 2.30845 | 32514 ft | 466 kts | 167° |
| 2026-04-20 20:27 | 8.00743 | 2.31707 | 32018 ft | 463 kts | 167° |
| 2026-04-20 20:27 | 7.97647 | 2.32563 | 31531 ft | 459 kts | 167° |
| 2026-04-20 20:28 | 7.94575 | 2.33413 | 31040 ft | 457 kts | 167° |
| 2026-04-20 20:28 | 7.91522 | 2.34257 | 30566 ft | 454 kts | 166° |
| 2026-04-20 20:28 | 7.88476 | 2.35075 | 30086 ft | 451 kts | 169° |
| 2026-04-20 20:28 | 7.85403 | 2.35639 | 29559 ft | 447 kts | 174° |
| 2026-04-20 20:29 | 7.82356 | 2.35877 | 29041 ft | 443 kts | 180° |
| 2026-04-20 20:29 | 7.79294 | 2.35938 | 28559 ft | 439 kts | 180° |
| 2026-04-20 20:29 | 7.76256 | 2.35986 | 28064 ft | 435 kts | 180° |
| 2026-04-20 20:29 | 7.73239 | 2.36035 | 27583 ft | 432 kts | 180° |
| 2026-04-20 20:30 | 7.70250 | 2.36089 | 27127 ft | 428 kts | 180° |
| 2026-04-20 20:30 | 7.67283 | 2.36149 | 26669 ft | 425 kts | 180° |
| 2026-04-20 20:30 | 7.64337 | 2.36213 | 26208 ft | 421 kts | 179° |
| 2026-04-20 20:30 | 7.61419 | 2.36279 | 25740 ft | 415 kts | 179° |
| 2026-04-20 20:31 | 7.58582 | 2.36345 | 25298 ft | 404 kts | 178° |
| 2026-04-20 20:31 | 7.55775 | 2.36411 | 24845 ft | 400 kts | 178° |
| 2026-04-20 20:31 | 7.53006 | 2.36476 | 24405 ft | 398 kts | 178° |
| 2026-04-20 20:31 | 7.50227 | 2.36542 | 23979 ft | 400 kts | 178° |
| 2026-04-20 20:32 | 7.47455 | 2.36606 | 23523 ft | 398 kts | 177° |
| 2026-04-20 20:32 | 7.44691 | 2.36671 | 23011 ft | 397 kts | 177° |
| 2026-04-20 20:32 | 7.41940 | 2.36735 | 22539 ft | 394 kts | 177° |
| 2026-04-20 20:32 | 7.39215 | 2.36799 | 22079 ft | 390 kts | 177° |
| 2026-04-20 20:33 | 7.36507 | 2.36862 | 21637 ft | 387 kts | 177° |
| 2026-04-20 20:33 | 7.33852 | 2.36923 | 21191 ft | 378 kts | 177° |
| 2026-04-20 20:33 | 7.31235 | 2.36984 | 20774 ft | 375 kts | 177° |
| 2026-04-20 20:33 | 7.28627 | 2.37045 | 20349 ft | 374 kts | 177° |
| 2026-04-20 20:34 | 7.26034 | 2.37105 | 19922 ft | 372 kts | 177° |
| 2026-04-20 20:34 | 7.23448 | 2.37166 | 19479 ft | 372 kts | 176° |
| 2026-04-20 20:34 | 7.20863 | 2.37227 | 19038 ft | 371 kts | 176° |
| 2026-04-20 20:34 | 7.18284 | 2.37287 | 18599 ft | 370 kts | 176° |
| 2026-04-20 20:35 | 7.15749 | 2.37345 | 18149 ft | 359 kts | 176° |
| 2026-04-20 20:35 | 7.13254 | 2.37403 | 17693 ft | 358 kts | 176° |
| 2026-04-20 20:35 | 7.10764 | 2.37461 | 17241 ft | 358 kts | 176° |
| 2026-04-20 20:35 | 7.08281 | 2.37519 | 16804 ft | 357 kts | 176° |
| 2026-04-20 20:36 | 7.05803 | 2.37577 | 16379 ft | 355 kts | 176° |
| 2026-04-20 20:36 | 7.03337 | 2.37635 | 15948 ft | 354 kts | 176° |
| 2026-04-20 20:36 | 7.00879 | 2.37692 | 15529 ft | 353 kts | 176° |
| 2026-04-20 20:36 | 6.98425 | 2.37749 | 15099 ft | 352 kts | 176° |
| 2026-04-20 20:37 | 6.95981 | 2.37806 | 14688 ft | 351 kts | 175° |
| 2026-04-20 20:37 | 6.93538 | 2.37863 | 14253 ft | 351 kts | 175° |
| 2026-04-20 20:37 | 6.91113 | 2.37919 | 13819 ft | 343 kts | 175° |
| 2026-04-20 20:37 | 6.88769 | 2.37972 | 13389 ft | 334 kts | 175° |
| 2026-04-20 20:38 | 6.86477 | 2.38027 | 12971 ft | 333 kts | 175° |
| 2026-04-20 20:38 | 6.84162 | 2.38081 | 12556 ft | 333 kts | 175° |
| 2026-04-20 20:38 | 6.81853 | 2.38135 | 12150 ft | 332 kts | 175° |
| 2026-04-20 20:38 | 6.79557 | 2.38145 | 11734 ft | 328 kts | 181° |
| 2026-04-20 20:39 | 6.77353 | 2.37548 | 11340 ft | 329 kts | 200° |
| 2026-04-20 20:39 | 6.75283 | 2.36575 | 10979 ft | 328 kts | 201° |
| 2026-04-20 20:39 | 6.73208 | 2.35608 | 10593 ft | 328 kts | 200° |
| 2026-04-20 20:39 | 6.71132 | 2.34652 | 10284 ft | 325 kts | 200° |
| 2026-04-20 20:40 | 6.69100 | 2.33722 | 10145 ft | 317 kts | 200° |
| 2026-04-20 20:40 | 6.67116 | 2.32819 | 10001 ft | 309 kts | 199° |
| 2026-04-20 20:40 | 6.65181 | 2.31942 | 9836 ft | 302 kts | 199° |
| 2026-04-20 20:40 | 6.63283 | 2.31085 | 9470 ft | 294 kts | 199° |
| 2026-04-20 20:41 | 6.61426 | 2.30250 | 9166 ft | 292 kts | 199° |
| 2026-04-20 20:41 | 6.59570 | 2.29417 | 8838 ft | 292 kts | 199° |
| 2026-04-20 20:41 | 6.57719 | 2.28586 | 8527 ft | 291 kts | 199° |
| 2026-04-20 20:41 | 6.55869 | 2.27756 | 8204 ft | 291 kts | 199° |
| 2026-04-20 20:42 | 6.54017 | 2.26924 | 7884 ft | 291 kts | 200° |
| 2026-04-20 20:42 | 6.52177 | 2.26097 | 7557 ft | 286 kts | 200° |
| 2026-04-20 20:42 | 6.50367 | 2.25283 | 7248 ft | 285 kts | 200° |
| 2026-04-20 20:42 | 6.48552 | 2.24468 | 6928 ft | 286 kts | 200° |
| 2026-04-20 20:43 | 6.46731 | 2.23651 | 6598 ft | 287 kts | 200° |
| 2026-04-20 20:43 | 6.44907 | 2.22832 | 6279 ft | 288 kts | 201° |
| 2026-04-20 20:43 | 6.43074 | 2.22008 | 5935 ft | 288 kts | 201° |
| 2026-04-20 20:43 | 6.41245 | 2.21186 | 5604 ft | 286 kts | 202° |
| 2026-04-20 20:44 | 6.39469 | 2.20386 | 5270 ft | 274 kts | 202° |
| 2026-04-20 20:44 | 6.37766 | 2.19620 | 4963 ft | 265 kts | 201° |
| 2026-04-20 20:44 | 6.36071 | 2.18860 | 4692 ft | 269 kts | 202° |
| 2026-04-20 20:44 | 6.34379 | 2.18101 | 4512 ft | 261 kts | 201° |
| 2026-04-20 20:45 | 6.32678 | 2.17680 | 4374 ft | 249 kts | 175° |
| 2026-04-20 20:45 | 6.31033 | 2.18131 | 4097 ft | 246 kts | 149° |
| 2026-04-20 20:45 | 6.29625 | 2.19110 | 3824 ft | 246 kts | 141° |
| 2026-04-20 20:45 | 6.28277 | 2.20136 | 3699 ft | 239 kts | 142° |
| 2026-04-20 20:46 | 6.26954 | 2.21142 | 3554 ft | 236 kts | 142° |
| 2026-04-20 20:46 | 6.25840 | 2.22279 | 3410 ft | 225 kts | 118° |
| 2026-04-20 20:46 | 6.25508 | 2.23767 | 3254 ft | 218 kts | 86° |
| 2026-04-20 20:46 | 6.25854 | 2.25237 | 3035 ft | 216 kts | 66° |
| 2026-04-20 20:47 | 6.26639 | 2.26483 | 2769 ft | 213 kts | 54° |
| 2026-04-20 20:47 | 6.27540 | 2.27663 | 2462 ft | 213 kts | 54° |
| 2026-04-20 20:47 | 6.28445 | 2.28839 | 2166 ft | 211 kts | 54° |
| 2026-04-20 20:47 | 6.29334 | 2.29994 | 2071 ft | 209 kts | 53° |
| 2026-04-20 20:48 | 6.30197 | 2.31120 | 2061 ft | 198 kts | 53° |
| 2026-04-20 20:48 | 6.31028 | 2.32202 | 1783 ft | 195 kts | 53° |
| 2026-04-20 20:48 | 6.31843 | 2.33233 | 1591 ft | 179 kts | 51° |
| 2026-04-20 20:48 | 6.32681 | 2.34173 | 1573 ft | 179 kts | 47° |
| 2026-04-20 20:49 | 6.33470 | 2.35124 | 1052 ft | 176 kts | 57° |
| 2026-04-20 20:49 | 6.34103 | 2.36148 | 592 ft | 166 kts | 57° |
| 2026-04-20 20:49 | 6.34713 | 2.37084 | 169 ft | 151 kts | 53° |
| 2026-04-20 20:49 | 6.35294 | 2.37862 | 32 ft | 128 kts | 52° |
| 2026-04-20 20:50 | 6.35727 | 2.38438 | 31 ft | 71 kts | 53° |
| 2026-04-20 20:50 | 6.35917 | 2.38686 | 29 ft | 35 kts | 51° |
| 2026-04-20 20:50 | 6.36059 | 2.38875 | 26 ft | 33 kts | 53° |
| 2026-04-20 20:50 | 6.36198 | 2.39051 | 28 ft | 31 kts | 50° |
| 2026-04-20 20:51 | 6.36302 | 2.39180 | 28 ft | 19 kts | 47° |
| 2026-04-20 20:51 | 6.36357 | 2.39246 | 31 ft | 4 kts | 88° |
| 2026-04-20 20:51 | 6.36353 | 2.39279 | 29 ft | 5 kts | 118° |
| 2026-04-20 20:51 | 6.36325 | 2.39268 | 29 ft | 5 kts | 258° |
| 2026-04-20 20:52 | 6.36354 | 2.39259 | 29 ft | 5 kts | 38° |
| 2026-04-20 20:52 | 6.36339 | 2.39285 | 30 ft | 5 kts | 177° |
| 2026-04-20 20:52 | 6.36314 | 2.39252 | 30 ft | 7 kts | 242° |
| 2026-04-20 20:52 | 6.36286 | 2.39203 | 29 ft | 9 kts | 236° |
| 2026-04-20 20:53 | 6.36246 | 2.39145 | 27 ft | 11 kts | 235° |
| 2026-04-20 20:53 | 6.36200 | 2.39079 | 30 ft | 12 kts | 233° |
| 2026-04-20 20:53 | 6.36151 | 2.39014 | 30 ft | 12 kts | 233° |
| 2026-04-20 20:53 | 6.36101 | 2.38948 | 32 ft | 12 kts | 231° |
| 2026-04-20 20:54 | 6.36047 | 2.38879 | 32 ft | 13 kts | 231° |
| 2026-04-20 20:54 | 6.35990 | 2.38807 | 27 ft | 13 kts | 232° |
| 2026-04-20 20:54 | 6.35935 | 2.38735 | 29 ft | 13 kts | 232° |
| 2026-04-20 20:54 | 6.35879 | 2.38662 | 29 ft | 13 kts | 233° |
| 2026-04-20 20:55 | 6.35823 | 2.38584 | 29 ft | 14 kts | 233° |
| 2026-04-20 20:55 | 6.35764 | 2.38506 | 30 ft | 14 kts | 232° |
| 2026-04-20 20:55 | 6.35704 | 2.38428 | 30 ft | 14 kts | 232° |
| 2026-04-20 20:55 | 6.35658 | 2.38377 | 30 ft | 8 kts | 216° |
| 2026-04-20 20:56 | 6.35598 | 2.38375 | 29 ft | 10 kts | 154° |
| 2026-04-20 20:56 | 6.35538 | 2.38419 | 29 ft | 11 kts | 149° |
| 2026-04-20 20:56 | 6.35466 | 2.38441 | 29 ft | 7 kts | 177° |
| 2026-04-20 20:56 | 6.35418 | 2.38458 | 29 ft | 3 kts | 150° |
| 2026-04-20 20:57 | 6.35404 | 2.38467 | 29 ft | 0 kts | 143° |